createdAt,value
2017-08-13T00:00:48.775Z,974.99
2017-08-13T00:01:59.045Z,975.03
2017-08-13T00:03:09.318Z,975.02
2017-08-13T00:04:19.595Z,975.04
2017-08-13T00:05:29.866Z,975.07
2017-08-13T00:06:40.159Z,975.01
2017-08-13T00:07:50.122Z,974.98
2017-08-13T00:09:00.399Z,974.97
2017-08-13T00:10:10.673Z,974.95
2017-08-13T00:11:20.943Z,974.97
2017-08-13T00:12:30.897Z,974.96
2017-08-13T00:13:41.172Z,975
2017-08-13T00:14:51.443Z,975.01
2017-08-13T00:16:01.713Z,974.99
2017-08-13T00:17:11.667Z,974.99
2017-08-13T00:18:21.941Z,974.99
2017-08-13T00:19:32.213Z,975.01
2017-08-13T00:20:42.488Z,975.02
2017-08-13T00:21:52.758Z,975.01
2017-08-13T00:23:03.027Z,975.01
2017-08-13T00:24:12.984Z,975.03
2017-08-13T00:25:22.940Z,974.99
2017-08-13T00:26:32.901Z,975.07
2017-08-13T00:27:43.168Z,974.99
2017-08-13T00:28:53.445Z,975
2017-08-13T00:30:03.720Z,974.97
2017-08-13T00:31:13.050Z,974.97
2017-08-13T00:32:23.006Z,974.95
2017-08-13T00:33:33.291Z,975
2017-08-13T00:34:43.561Z,974.98
2017-08-13T00:35:53.832Z,974.96
2017-08-13T00:37:04.104Z,974.95
2017-08-13T00:38:14.063Z,974.92
2017-08-13T00:39:24.332Z,975.02
2017-08-13T00:40:34.603Z,974.98
2017-08-13T00:41:44.558Z,975.07
2017-08-13T00:42:54.830Z,975.01
2017-08-13T00:44:05.102Z,975.01
2017-08-13T00:45:15.062Z,975.04
2017-08-13T00:46:25.054Z,975.01
2017-08-13T00:47:35.202Z,974.98
2017-08-13T00:48:45.655Z,975.05
2017-08-13T00:49:55.927Z,974.99
2017-08-13T00:51:05.886Z,975.09
2017-08-13T00:52:15.839Z,975.03
2017-08-13T00:53:25.480Z,975.07
2017-08-13T00:54:35.438Z,974.99
2017-08-13T00:55:45.706Z,975.05
2017-08-13T00:56:55.658Z,975.07
2017-08-13T00:58:05.927Z,975.08
2017-08-13T00:59:15.881Z,975.1
2017-08-13T01:00:26.159Z,975.11
2017-08-13T01:01:36.426Z,975.1
2017-08-13T01:02:46.699Z,975.08
2017-08-13T01:03:56.654Z,975.14
2017-08-13T01:05:06.610Z,975.12
2017-08-13T01:06:16.576Z,975.09
2017-08-13T01:07:26.240Z,975.13
2017-08-13T01:08:36.515Z,975.11
2017-08-13T01:09:46.796Z,975.13
2017-08-13T01:10:57.066Z,975.12
2017-08-13T01:12:06.704Z,975.13
2017-08-13T01:13:16.663Z,975.06
2017-08-13T01:14:26.617Z,975.13
2017-08-13T01:15:36.893Z,975.1
2017-08-13T01:16:46.531Z,975.14
2017-08-13T01:17:56.481Z,975.1
2017-08-13T01:19:06.755Z,975.2
2017-08-13T01:20:16.723Z,975.25
2017-08-13T01:21:26.997Z,975.21
2017-08-13T01:22:37.266Z,975.26
2017-08-13T01:23:47.536Z,975.31
2017-08-13T01:24:57.804Z,975.34
2017-08-13T01:26:08.076Z,975.28
2017-08-13T01:27:18.345Z,975.32
2017-08-13T01:28:28.613Z,975.29
2017-08-13T01:29:38.885Z,975.32
2017-08-13T01:30:49.153Z,975.31
2017-08-13T01:31:59.427Z,975.29
2017-08-13T01:33:09.704Z,975.28
2017-08-13T01:34:19.342Z,975.32
2017-08-13T01:35:29.610Z,975.34
2017-08-13T01:36:39.875Z,975.29
2017-08-13T01:37:50.146Z,975.28
2017-08-13T01:39:00.102Z,975.38
2017-08-13T01:40:10.375Z,975.35
2017-08-13T01:41:20.641Z,975.37
2017-08-13T01:42:30.595Z,975.36
2017-08-13T01:43:40.861Z,975.37
2017-08-13T01:44:51.136Z,975.42
2017-08-13T01:46:01.408Z,975.36
2017-08-13T01:47:11.363Z,975.36
2017-08-13T01:48:21.631Z,975.43
2017-08-13T01:49:31.899Z,975.39
2017-08-13T01:50:41.852Z,975.32
2017-08-13T01:51:52.122Z,975.37
2017-08-13T01:53:02.076Z,975.4
2017-08-13T01:54:11.720Z,975.4
2017-08-13T01:55:22.004Z,975.3
2017-08-13T01:56:31.967Z,975.41
2017-08-13T01:57:42.261Z,975.42
2017-08-13T01:58:52.527Z,975.41
2017-08-13T02:00:02.483Z,975.41
2017-08-13T02:01:12.443Z,975.47
2017-08-13T02:02:22.395Z,975.47
2017-08-13T02:03:32.349Z,975.48
2017-08-13T02:04:42.618Z,975.47
2017-08-13T02:05:52.741Z,975.51
2017-08-13T02:07:03.019Z,975.5
2017-08-13T02:08:12.660Z,975.51
2017-08-13T02:09:22.932Z,975.48
2017-08-13T02:10:33.208Z,975.48
2017-08-13T02:12:57.061Z,975.5
2017-08-13T02:14:07.351Z,975.56
2017-08-13T02:15:17.626Z,975.52
2017-08-13T02:16:27.892Z,975.5
2017-08-13T02:17:37.846Z,975.56
2017-08-13T02:18:48.114Z,975.6
2017-08-13T02:19:58.391Z,975.6
2017-08-13T02:21:08.681Z,975.61
2017-08-13T02:22:18.639Z,975.62
2017-08-13T02:23:28.917Z,975.66
2017-08-13T02:24:39.183Z,975.62
2017-08-13T02:25:49.456Z,975.63
2017-08-13T02:26:59.730Z,975.62
2017-08-13T02:28:10.003Z,975.71
2017-08-13T02:29:20.273Z,975.69
2017-08-13T02:30:30.547Z,975.65
2017-08-13T02:31:40.823Z,975.72
2017-08-13T02:32:51.097Z,975.74
2017-08-13T02:34:01.369Z,975.71
2017-08-13T02:35:11.646Z,975.75
2017-08-13T02:36:21.914Z,975.71
2017-08-13T02:37:31.872Z,975.76
2017-08-13T02:38:41.827Z,975.77
2017-08-13T02:39:51.779Z,975.77
2017-08-13T02:41:01.738Z,975.82
2017-08-13T02:42:12.021Z,975.81
2017-08-13T02:43:22.289Z,975.8
2017-08-13T02:44:32.263Z,975.78
2017-08-13T02:45:42.533Z,975.8
2017-08-13T02:46:52.802Z,975.81
2017-08-13T02:48:03.092Z,975.86
2017-08-13T02:49:13.050Z,975.84
2017-08-13T02:50:23.008Z,975.88
2017-08-13T02:51:33.292Z,975.88
2017-08-13T02:52:43.566Z,975.92
2017-08-13T02:53:53.834Z,975.96
2017-08-13T02:55:03.807Z,975.98
2017-08-13T02:56:14.074Z,975.97
2017-08-13T02:57:23.713Z,976.02
2017-08-13T02:58:33.353Z,975.99
2017-08-13T02:59:43.622Z,976.02
2017-08-13T03:00:53.896Z,976.01
2017-08-13T03:02:04.165Z,976.04
2017-08-13T03:03:14.435Z,976.08
2017-08-13T03:04:24.388Z,976.06
2017-08-13T03:05:34.366Z,976.12
2017-08-13T03:06:44.637Z,976.1
2017-08-13T03:07:54.909Z,976.09
2017-08-13T03:09:05.180Z,976.12
2017-08-13T03:10:15.452Z,976.1
2017-08-13T03:11:25.407Z,976.11
2017-08-13T03:12:35.363Z,976.06
2017-08-13T03:13:45.628Z,976.08
2017-08-13T03:14:55.898Z,976.08
2017-08-13T03:16:05.852Z,976.04
2017-08-13T03:17:15.491Z,976.06
2017-08-13T03:18:25.758Z,976.08
2017-08-13T03:19:35.710Z,976.03
2017-08-13T03:20:45.984Z,976.05
2017-08-13T03:21:56.252Z,975.99
2017-08-13T03:23:06.205Z,976.01
2017-08-13T03:24:16.474Z,976.05
2017-08-13T03:25:26.741Z,976.09
2017-08-13T03:26:36.386Z,976.08
2017-08-13T03:27:46.674Z,976.12
2017-08-13T03:28:56.627Z,976.07
2017-08-13T03:30:06.899Z,976.17
2017-08-13T03:31:17.176Z,976.12
2017-08-13T03:32:27.143Z,976.17
2017-08-13T03:33:37.101Z,976.19
2017-08-13T03:34:47.058Z,976.17
2017-08-13T03:35:57.022Z,976.18
2017-08-13T03:37:07.294Z,976.21
2017-08-13T03:38:17.566Z,976.22
2017-08-13T03:39:27.833Z,976.24
2017-08-13T03:40:38.100Z,976.21
2017-08-13T03:41:48.367Z,976.19
2017-08-13T03:42:58.638Z,976.26
2017-08-13T03:44:08.910Z,976.24
2017-08-13T03:45:19.181Z,976.24
2017-08-13T03:46:29.450Z,976.27
2017-08-13T03:47:39.720Z,976.26
2017-08-13T03:48:50.008Z,976.35
2017-08-13T03:50:00.292Z,976.34
2017-08-13T03:51:10.566Z,976.34
2017-08-13T03:52:20.548Z,976.35
2017-08-13T03:53:30.500Z,976.33
2017-08-13T03:54:40.778Z,976.36
2017-08-13T03:55:51.061Z,976.33
2017-08-13T03:57:01.022Z,976.3
2017-08-13T03:58:10.977Z,976.32
2017-08-13T03:59:20.934Z,976.3
2017-08-13T04:00:31.199Z,976.31
2017-08-13T04:01:41.153Z,976.35
2017-08-13T04:02:51.419Z,976.37
2017-08-13T04:04:01.688Z,976.39
2017-08-13T04:05:11.641Z,976.37
2017-08-13T04:06:21.595Z,976.38
2017-08-13T04:07:31.863Z,976.43
2017-08-13T04:08:42.132Z,976.38
2017-08-13T04:09:52.088Z,976.39
2017-08-13T04:11:02.048Z,976.4
2017-08-13T04:12:12.315Z,976.43
2017-08-13T04:13:22.584Z,976.47
2017-08-13T04:14:32.856Z,976.45
2017-08-13T04:15:43.143Z,976.47
2017-08-13T04:16:53.409Z,976.48
2017-08-13T04:18:03.686Z,976.48
2017-08-13T04:19:13.955Z,976.48
2017-08-13T04:20:23.916Z,976.45
2017-08-13T04:21:33.878Z,976.48
2017-08-13T04:22:43.831Z,976.53
2017-08-13T04:23:54.101Z,976.56
2017-08-13T04:25:04.369Z,976.56
2017-08-13T04:26:14.643Z,976.57
2017-08-13T04:27:24.599Z,976.59
2017-08-13T04:28:34.871Z,976.57
2017-08-13T04:29:44.823Z,976.6
2017-08-13T04:30:55.114Z,976.66
2017-08-13T04:32:05.383Z,976.68
2017-08-13T04:33:15.657Z,976.66
2017-08-13T04:34:25.612Z,976.71
2017-08-13T04:35:35.879Z,976.72
2017-08-13T04:36:46.146Z,976.72
2017-08-13T04:37:56.416Z,976.74
2017-08-13T04:39:06.682Z,976.76
2017-08-13T04:40:16.640Z,976.77
2017-08-13T04:41:26.908Z,976.8
2017-08-13T04:42:37.177Z,976.79
2017-08-13T04:43:47.446Z,976.8
2017-08-13T04:44:57.714Z,976.82
2017-08-13T04:46:07.981Z,976.82
2017-08-13T04:47:18.247Z,976.88
2017-08-13T04:48:28.516Z,976.87
2017-08-13T04:49:38.785Z,976.92
2017-08-13T04:50:49.050Z,976.93
2017-08-13T04:51:59.324Z,976.94
2017-08-13T04:53:09.596Z,976.98
2017-08-13T04:54:19.864Z,976.96
2017-08-13T04:55:30.132Z,977.01
2017-08-13T04:56:40.402Z,977.01
2017-08-13T04:57:50.671Z,977.02
2017-08-13T04:59:00.940Z,977.05
2017-08-13T05:00:11.213Z,977.07
2017-08-13T05:01:21.490Z,977.09
2017-08-13T05:02:31.762Z,977.1
2017-08-13T05:03:42.034Z,977.12
2017-08-13T05:04:52.306Z,977.1
2017-08-13T05:06:02.575Z,977.16
2017-08-13T05:07:12.850Z,977.16
2017-08-13T05:08:23.118Z,977.17
2017-08-13T05:09:33.074Z,977.21
2017-08-13T05:10:43.343Z,977.25
2017-08-13T05:11:53.610Z,977.24
2017-08-13T05:13:03.879Z,977.27
2017-08-13T05:14:14.149Z,977.29
2017-08-13T05:15:24.419Z,977.31
2017-08-13T05:16:34.686Z,977.32
2017-08-13T05:17:44.642Z,977.32
2017-08-13T05:18:54.910Z,977.3
2017-08-13T05:20:04.868Z,977.29
2017-08-13T05:21:15.134Z,977.27
2017-08-13T05:22:25.402Z,977.25
2017-08-13T05:23:35.041Z,977.25
2017-08-13T05:24:45.313Z,977.26
2017-08-13T05:25:55.577Z,977.32
2017-08-13T05:27:05.845Z,977.29
2017-08-13T05:28:16.115Z,977.33
2017-08-13T05:29:25.769Z,977.29
2017-08-13T05:30:36.056Z,977.35
2017-08-13T05:31:46.332Z,977.34
2017-08-13T05:32:56.600Z,977.34
2017-08-13T05:34:06.868Z,977.33
2017-08-13T05:35:17.136Z,977.37
2017-08-13T05:36:27.406Z,977.37
2017-08-13T05:37:37.359Z,977.4
2017-08-13T05:38:47.313Z,977.4
2017-08-13T05:39:57.593Z,977.35
2017-08-13T05:41:07.950Z,977.4
2017-08-13T05:42:18.225Z,977.43
2017-08-13T05:43:28.184Z,977.42
2017-08-13T05:44:38.461Z,977.44
2017-08-13T05:45:48.728Z,977.47
2017-08-13T05:46:58.374Z,977.48
2017-08-13T05:48:08.645Z,977.52
2017-08-13T05:49:18.913Z,977.51
2017-08-13T05:50:28.880Z,977.53
2017-08-13T05:51:39.171Z,977.49
2017-08-13T05:52:48.812Z,977.53
2017-08-13T05:53:59.084Z,977.5
2017-08-13T05:55:09.355Z,977.53
2017-08-13T05:56:19.004Z,977.52
2017-08-13T05:57:28.964Z,977.55
2017-08-13T05:58:39.231Z,977.56
2017-08-13T05:59:49.501Z,977.58
2017-08-13T06:00:59.768Z,977.62
2017-08-13T06:02:09.747Z,977.57
2017-08-13T06:03:20.016Z,977.61
2017-08-13T06:04:30.291Z,977.63
2017-08-13T06:05:40.564Z,977.72
2017-08-13T06:06:50.519Z,977.73
2017-08-13T06:08:00.803Z,977.75
2017-08-13T06:09:11.073Z,977.78
2017-08-13T06:10:21.346Z,977.81
2017-08-13T06:11:31.628Z,977.83
2017-08-13T06:12:41.588Z,977.83
2017-08-13T06:13:51.861Z,977.84
2017-08-13T06:15:02.131Z,977.85
2017-08-13T06:16:12.085Z,977.83
2017-08-13T06:17:22.369Z,977.88
2017-08-13T06:18:32.331Z,977.9
2017-08-13T06:19:42.601Z,977.92
2017-08-13T06:20:52.919Z,977.86
2017-08-13T06:22:03.187Z,977.88
2017-08-13T06:23:13.469Z,977.85
2017-08-13T06:24:23.743Z,977.9
2017-08-13T06:25:33.389Z,977.91
2017-08-13T06:26:43.656Z,977.93
2017-08-13T06:27:53.305Z,977.95
2017-08-13T06:29:03.574Z,977.94
2017-08-13T06:30:13.843Z,977.92
2017-08-13T06:31:24.113Z,977.95
2017-08-13T06:32:34.381Z,977.92
2017-08-13T06:33:44.654Z,977.92
2017-08-13T06:34:54.612Z,977.99
2017-08-13T06:36:04.886Z,977.94
2017-08-13T06:37:15.165Z,977.93
2017-08-13T06:38:25.118Z,977.96
2017-08-13T06:39:35.389Z,978
2017-08-13T06:40:45.729Z,977.93
2017-08-13T06:41:55.688Z,978.03
2017-08-13T06:43:05.963Z,978.04
2017-08-13T06:44:16.232Z,978.01
2017-08-13T06:45:26.187Z,978.09
2017-08-13T06:46:36.141Z,978.11
2017-08-13T06:47:46.415Z,978.15
2017-08-13T06:48:56.684Z,978.09
2017-08-13T06:50:06.953Z,978.1
2017-08-13T06:51:16.594Z,978.11
2017-08-13T06:52:26.862Z,978.11
2017-08-13T06:53:36.841Z,978.19
2017-08-13T06:54:47.116Z,978.25
2017-08-13T06:55:57.385Z,978.2
2017-08-13T06:57:07.340Z,978.2
2017-08-13T06:58:17.617Z,978.19
2017-08-13T06:59:27.572Z,978.19
2017-08-13T07:00:37.529Z,978.2
2017-08-13T07:01:47.798Z,978.19
2017-08-13T07:02:58.083Z,978.24
2017-08-13T07:04:08.353Z,978.2
2017-08-13T07:05:18.624Z,978.19
2017-08-13T07:06:28.593Z,978.2
2017-08-13T07:07:38.872Z,978.25
2017-08-13T07:08:49.164Z,978.29
2017-08-13T07:09:59.433Z,978.3
2017-08-13T07:11:09.707Z,978.32
2017-08-13T07:12:19.991Z,978.32
2017-08-13T07:13:30.264Z,978.31
2017-08-13T07:14:40.284Z,978.31
2017-08-13T07:15:50.555Z,978.39
2017-08-13T07:17:00.826Z,978.38
2017-08-13T07:18:11.098Z,978.34
2017-08-13T07:19:21.056Z,978.35
2017-08-13T07:20:31.018Z,978.38
2017-08-13T07:21:41.285Z,978.35
2017-08-13T07:22:51.240Z,978.36
2017-08-13T07:24:01.509Z,978.37
2017-08-13T07:25:11.776Z,978.4
2017-08-13T07:26:22.048Z,978.38
2017-08-13T07:27:32.325Z,978.44
2017-08-13T07:28:42.282Z,978.46
2017-08-13T07:29:52.600Z,978.46
2017-08-13T07:31:02.870Z,978.46
2017-08-13T07:32:13.139Z,978.5
2017-08-13T07:33:23.099Z,978.5
2017-08-13T07:34:33.056Z,978.51
2017-08-13T07:35:43.324Z,978.53
2017-08-13T07:36:53.600Z,978.47
2017-08-13T07:38:03.869Z,978.54
2017-08-13T07:39:14.141Z,978.54
2017-08-13T07:40:24.407Z,978.56
2017-08-13T07:41:34.676Z,978.57
2017-08-13T07:42:45.018Z,978.55
2017-08-13T07:43:55.298Z,978.57
2017-08-13T07:45:05.571Z,978.61
2017-08-13T07:46:15.528Z,978.63
2017-08-13T07:47:25.797Z,978.6
2017-08-13T07:48:35.436Z,978.59
2017-08-13T07:49:45.389Z,978.61
2017-08-13T07:50:55.660Z,978.62
2017-08-13T07:52:05.926Z,978.62
2017-08-13T07:53:16.196Z,978.68
2017-08-13T07:54:26.154Z,978.73
2017-08-13T07:55:36.430Z,978.75
2017-08-13T07:56:46.701Z,978.77
2017-08-13T07:57:56.971Z,978.75
2017-08-13T07:59:06.930Z,978.72
2017-08-13T08:00:17.212Z,978.72
2017-08-13T08:01:27.486Z,978.78
2017-08-13T08:02:37.772Z,978.84
2017-08-13T08:03:48.047Z,978.81
2017-08-13T08:04:58.328Z,978.8
2017-08-13T08:06:08.303Z,978.79
2017-08-13T08:07:18.580Z,978.8
2017-08-13T08:08:28.852Z,978.81
2017-08-13T08:09:39.122Z,978.85
2017-08-13T08:10:49.395Z,978.87
2017-08-13T08:11:59.354Z,978.86
2017-08-13T08:13:09.632Z,978.88
2017-08-13T08:14:19.589Z,978.85
2017-08-13T08:15:29.548Z,978.84
2017-08-13T08:16:39.836Z,978.84
2017-08-13T08:17:50.111Z,978.85
2017-08-13T08:19:00.066Z,978.85
2017-08-13T08:20:10.343Z,978.86
2017-08-13T08:21:20.613Z,978.91
2017-08-13T08:22:30.884Z,978.86
2017-08-13T08:23:40.838Z,978.87
2017-08-13T08:24:51.109Z,978.94
2017-08-13T08:26:01.383Z,978.99
2017-08-13T08:27:11.656Z,978.95
2017-08-13T08:28:21.299Z,978.97
2017-08-13T08:29:30.629Z,978.94
2017-08-13T08:30:40.902Z,978.94
2017-08-13T08:31:50.857Z,978.99
2017-08-13T08:33:01.127Z,979.02
2017-08-13T08:34:11.087Z,979.03
2017-08-13T08:35:21.064Z,979.02
2017-08-13T08:36:31.033Z,978.99
2017-08-13T08:37:40.988Z,979.02
2017-08-13T08:38:50.944Z,979.01
2017-08-13T08:40:00.899Z,978.99
2017-08-13T08:41:10.884Z,979.03
2017-08-13T08:42:21.158Z,979
2017-08-13T08:43:31.431Z,978.97
2017-08-13T08:44:41.072Z,978.99
2017-08-13T08:45:51.034Z,979.01
2017-08-13T08:47:01.306Z,979.01
2017-08-13T08:48:11.589Z,979.04
2017-08-13T08:49:21.865Z,979.12
2017-08-13T08:50:31.506Z,979.11
2017-08-13T08:51:41.775Z,979.11
2017-08-13T08:52:52.049Z,979.12
2017-08-13T08:54:02.321Z,979.14
2017-08-13T08:55:12.600Z,979.12
2017-08-13T08:56:22.872Z,979.14
2017-08-13T08:57:32.829Z,979.2
2017-08-13T08:58:42.783Z,979.18
2017-08-13T08:59:53.053Z,979.22
2017-08-13T09:01:03.015Z,979.27
2017-08-13T09:02:13.291Z,979.21
2017-08-13T09:03:23.561Z,979.2
2017-08-13T09:04:33.838Z,979.24
2017-08-13T09:05:44.133Z,979.16
2017-08-13T09:06:54.095Z,979.23
2017-08-13T09:08:04.054Z,979.21
2017-08-13T09:09:14.015Z,979.2
2017-08-13T09:10:24.290Z,979.19
2017-08-13T09:11:34.247Z,979.26
2017-08-13T09:12:44.516Z,979.24
2017-08-13T09:13:54.472Z,979.2
2017-08-13T09:15:04.775Z,979.24
2017-08-13T09:16:14.417Z,979.32
2017-08-13T09:17:24.692Z,979.22
2017-08-13T09:18:34.968Z,979.23
2017-08-13T09:19:44.931Z,979.24
2017-08-13T09:20:55.204Z,979.25
2017-08-13T09:22:05.162Z,979.21
2017-08-13T09:23:15.121Z,979.19
2017-08-13T09:24:25.079Z,979.27
2017-08-13T09:25:35.046Z,979.2
2017-08-13T09:26:45.320Z,979.25
2017-08-13T09:27:55.600Z,979.24
2017-08-13T09:29:05.874Z,979.27
2017-08-13T09:30:16.149Z,979.26
2017-08-13T09:31:26.419Z,979.29
2017-08-13T09:32:36.379Z,979.31
2017-08-13T09:33:46.650Z,979.35
2017-08-13T09:34:56.922Z,979.37
2017-08-13T09:36:07.194Z,979.37
2017-08-13T09:37:17.466Z,979.41
2017-08-13T09:38:27.748Z,979.4
2017-08-13T09:39:38.023Z,979.41
2017-08-13T09:40:48.323Z,979.44
2017-08-13T09:41:58.601Z,979.47
2017-08-13T09:43:08.569Z,979.49
2017-08-13T09:44:18.844Z,979.53
2017-08-13T09:45:29.113Z,979.51
2017-08-13T09:46:39.385Z,979.49
2017-08-13T09:47:49.655Z,979.5
2017-08-13T09:48:59.926Z,979.48
2017-08-13T09:50:10.199Z,979.48
2017-08-13T09:51:20.470Z,979.47
2017-08-13T09:52:30.741Z,979.46
2017-08-13T09:53:41.011Z,979.44
2017-08-13T09:54:50.969Z,979.44
2017-08-13T09:56:00.930Z,979.47
2017-08-13T09:57:11.202Z,979.44
2017-08-13T09:58:21.480Z,979.43
2017-08-13T09:59:31.438Z,979.45
2017-08-13T10:00:41.714Z,979.46
2017-08-13T10:01:51.685Z,979.48
2017-08-13T10:03:01.959Z,979.45
2017-08-13T10:04:12.231Z,979.47
2017-08-13T10:05:21.873Z,979.44
2017-08-13T10:06:32.144Z,979.45
2017-08-13T10:07:42.423Z,979.49
2017-08-13T10:08:52.068Z,979.48
2017-08-13T10:10:02.345Z,979.51
2017-08-13T10:11:12.619Z,979.48
2017-08-13T10:12:22.581Z,979.48
2017-08-13T10:13:32.542Z,979.49
2017-08-13T10:14:42.190Z,979.46
2017-08-13T10:15:52.149Z,979.48
2017-08-13T10:17:02.422Z,979.46
2017-08-13T10:18:12.382Z,979.47
2017-08-13T10:19:21.708Z,979.5
2017-08-13T10:20:31.682Z,979.49
2017-08-13T10:21:41.955Z,979.52
2017-08-13T10:22:51.781Z,979.51
2017-08-13T10:24:01.738Z,979.53
2017-08-13T10:25:12.020Z,979.57
2017-08-13T10:26:21.664Z,979.57
2017-08-13T10:27:31.936Z,979.6
2017-08-13T10:28:41.897Z,979.58
2017-08-13T10:29:52.176Z,979.6
2017-08-13T10:31:02.468Z,979.62
2017-08-13T10:32:12.426Z,979.58
2017-08-13T10:33:22.386Z,979.59
2017-08-13T10:34:32.344Z,979.6
2017-08-13T10:35:42.614Z,979.58
2017-08-13T10:36:52.258Z,979.59
2017-08-13T10:38:02.535Z,979.61
2017-08-13T10:39:12.492Z,979.62
2017-08-13T10:40:22.448Z,979.62
2017-08-13T10:41:32.722Z,979.66
2017-08-13T10:42:42.994Z,979.68
2017-08-13T10:43:52.960Z,979.63
2017-08-13T10:45:03.236Z,979.65
2017-08-13T10:46:13.196Z,979.67
2017-08-13T10:47:23.155Z,979.65
2017-08-13T10:48:33.116Z,979.7
2017-08-13T10:49:43.406Z,979.63
2017-08-13T10:50:53.680Z,979.64
2017-08-13T10:52:03.954Z,979.63
2017-08-13T10:53:13.930Z,979.66
2017-08-13T10:54:24.206Z,979.69
2017-08-13T10:55:34.479Z,979.62
2017-08-13T10:56:44.760Z,979.62
2017-08-13T10:57:55.036Z,979.64
2017-08-13T10:59:04.680Z,979.7
2017-08-13T11:00:14.958Z,979.7
2017-08-13T11:01:24.289Z,979.72
2017-08-13T11:02:34.564Z,979.67
2017-08-13T11:03:44.837Z,979.67
2017-08-13T11:04:54.807Z,979.64
2017-08-13T11:06:04.775Z,979.71
2017-08-13T11:07:15.062Z,979.68
2017-08-13T11:08:25.345Z,979.65
2017-08-13T11:09:35.311Z,979.6
2017-08-13T11:10:45.292Z,979.61
2017-08-13T11:11:55.258Z,979.55
2017-08-13T11:13:05.535Z,979.62
2017-08-13T11:14:15.498Z,979.63
2017-08-13T11:15:25.770Z,979.68
2017-08-13T11:16:36.042Z,979.67
2017-08-13T11:17:46.326Z,979.65
2017-08-13T11:18:56.644Z,979.66
2017-08-13T11:20:06.935Z,979.65
2017-08-13T11:21:17.209Z,979.63
2017-08-13T11:22:27.480Z,979.64
2017-08-13T11:23:37.756Z,979.57
2017-08-13T11:24:48.031Z,979.59
2017-08-13T11:25:58.320Z,979.59
2017-08-13T11:27:08.280Z,979.59
2017-08-13T11:28:18.554Z,979.64
2017-08-13T11:29:28.849Z,979.64
2017-08-13T11:30:39.121Z,979.7
2017-08-13T11:31:49.394Z,979.65
2017-08-13T11:32:59.670Z,979.78
2017-08-13T11:34:09.973Z,979.75
2017-08-13T11:35:20.255Z,979.79
2017-08-13T11:36:30.216Z,979.81
2017-08-13T11:37:40.194Z,979.73
2017-08-13T11:38:50.186Z,979.75
2017-08-13T11:40:00.152Z,979.67
2017-08-13T11:41:10.126Z,979.64
2017-08-13T11:42:20.095Z,979.61
2017-08-13T11:43:30.062Z,979.61
2017-08-13T11:44:40.340Z,979.66
2017-08-13T11:45:50.630Z,979.7
2017-08-13T11:47:00.918Z,979.73
2017-08-13T11:48:11.203Z,979.71
2017-08-13T11:49:21.486Z,979.67
2017-08-13T11:50:31.793Z,979.77
2017-08-13T11:51:42.073Z,979.79
2017-08-13T11:52:52.045Z,979.41
2017-08-13T11:54:02.027Z,979.45
2017-08-13T11:55:12.312Z,979.61
2017-08-13T11:56:22.695Z,979.79
2017-08-13T11:57:32.977Z,979.7
2017-08-13T11:58:43.266Z,979.71
2017-08-13T11:59:53.554Z,979.66
2017-08-13T12:01:03.842Z,979.66
2017-08-13T12:02:14.125Z,979.68
2017-08-13T12:03:24.412Z,979.75
2017-08-13T12:04:34.697Z,979.74
2017-08-13T12:05:44.371Z,979.74
2017-08-13T12:06:54.659Z,979.77
2017-08-13T12:08:04.637Z,979.74
2017-08-13T12:09:14.929Z,979.66
2017-08-13T12:10:25.217Z,979.78
2017-08-13T12:11:34.873Z,979.69
2017-08-13T12:12:45.174Z,979.77
2017-08-13T12:13:54.857Z,979.72
2017-08-13T12:15:05.142Z,979.85
2017-08-13T12:16:15.117Z,979.85
2017-08-13T12:17:25.129Z,979.79
2017-08-13T12:18:35.423Z,979.73
2017-08-13T12:19:45.710Z,979.41
2017-08-13T12:20:56.004Z,979.47
2017-08-13T12:22:06.302Z,979.89
2017-08-13T12:23:16.592Z,979.82
2017-08-13T12:24:26.879Z,979.69
2017-08-13T12:25:37.166Z,979.8
2017-08-13T12:26:47.454Z,979.8
2017-08-13T12:27:57.745Z,979.66
2017-08-13T12:29:08.033Z,979.68
2017-08-13T12:30:18.320Z,979.7
2017-08-13T12:31:28.304Z,979.64
2017-08-13T12:32:38.595Z,979.75
2017-08-13T12:33:48.888Z,979.79
2017-08-13T12:34:59.175Z,979.81
2017-08-13T12:36:09.468Z,979.8
2017-08-13T12:37:19.444Z,979.81
2017-08-13T12:38:29.128Z,979.86
2017-08-13T12:39:39.453Z,979.81
2017-08-13T12:40:49.425Z,979.77
2017-08-13T12:41:59.712Z,979.79
2017-08-13T12:43:09.702Z,979.71
2017-08-13T12:44:19.996Z,979.79
2017-08-13T12:45:29.974Z,979.8
2017-08-13T12:46:40.262Z,979.88
2017-08-13T12:47:50.233Z,979.87
2017-08-13T12:49:00.526Z,980
2017-08-13T12:50:10.820Z,979.9
2017-08-13T12:51:21.114Z,979.86
2017-08-13T12:52:31.092Z,980.04
2017-08-13T12:53:41.383Z,980.06
2017-08-13T12:54:53.360Z,980.1
2017-08-13T12:56:03.341Z,980.06
2017-08-13T12:57:13.627Z,979.99
2017-08-13T12:58:23.602Z,980.15
2017-08-13T12:59:33.575Z,980.19
2017-08-13T13:00:43.878Z,979.71
2017-08-13T13:01:53.853Z,980.16
2017-08-13T13:03:03.829Z,980.14
2017-08-13T13:04:14.120Z,980.23
2017-08-13T13:05:24.433Z,980.18
2017-08-13T13:06:34.407Z,980.17
2017-08-13T13:07:44.696Z,980.27
2017-08-13T13:08:54.676Z,980.15
2017-08-13T13:10:04.649Z,980.37
2017-08-13T13:11:14.621Z,980.16
2017-08-13T13:12:24.595Z,979.7
2017-08-13T13:13:34.573Z,979.84
2017-08-13T13:14:44.862Z,979.98
2017-08-13T13:15:54.836Z,980.61
2017-08-13T13:17:05.124Z,980.47
2017-08-13T13:18:15.410Z,980.14
2017-08-13T13:19:25.076Z,980.54
2017-08-13T13:20:35.360Z,980.51
2017-08-13T13:21:45.654Z,980.56
2017-08-13T13:22:55.942Z,979.84
2017-08-13T13:24:06.431Z,979.84
2017-08-13T13:25:16.722Z,979.92
2017-08-13T13:26:26.694Z,979.95
2017-08-13T13:27:36.984Z,980.02
2017-08-13T13:28:46.958Z,980.66
2017-08-13T13:29:56.927Z,980.59
2017-08-13T13:31:06.898Z,980.55
2017-08-13T13:32:17.195Z,980.6
2017-08-13T13:33:27.481Z,980.6
2017-08-13T13:34:37.478Z,980.53
2017-08-13T13:35:47.467Z,980.65
2017-08-13T13:36:57.756Z,979.95
2017-08-13T13:38:08.042Z,980.49
2017-08-13T13:39:18.327Z,980.51
2017-08-13T13:40:28.612Z,980.65
2017-08-13T13:41:38.897Z,980.09
2017-08-13T13:42:48.871Z,980.37
2017-08-13T13:43:58.842Z,980.43
2017-08-13T13:45:09.129Z,980.52
2017-08-13T13:46:19.414Z,980.56
2017-08-13T13:47:29.081Z,980.55
2017-08-13T13:48:39.367Z,980.49
2017-08-13T13:49:49.652Z,979.9
2017-08-13T13:50:59.939Z,980.01
2017-08-13T13:52:10.232Z,980.52
2017-08-13T13:53:20.519Z,980.34
2017-08-13T13:54:30.493Z,980.32
2017-08-13T13:55:40.785Z,980.7
2017-08-13T13:56:51.078Z,980.67
2017-08-13T13:58:01.373Z,980.62
2017-08-13T13:59:11.658Z,980.79
2017-08-13T14:00:21.948Z,980.84
2017-08-13T14:01:31.920Z,980.95
2017-08-13T14:02:42.209Z,980.97
2017-08-13T14:03:52.185Z,981.02
2017-08-13T14:05:02.475Z,981.05
2017-08-13T14:06:12.775Z,981.05
2017-08-13T14:07:23.078Z,981.02
2017-08-13T14:08:33.369Z,981.09
2017-08-13T14:09:43.028Z,980.04
2017-08-13T14:10:53.322Z,980.56
2017-08-13T14:12:03.612Z,981.12
2017-08-13T14:13:13.917Z,980.13
2017-08-13T14:14:24.207Z,980.11
2017-08-13T14:15:34.496Z,980.2
2017-08-13T14:16:44.470Z,981.09
2017-08-13T14:17:54.458Z,981.06
2017-08-13T14:19:04.431Z,981.07
2017-08-13T14:20:14.720Z,981.03
2017-08-13T14:21:25.007Z,981.06
2017-08-13T14:22:35.309Z,981.09
2017-08-13T14:23:45.293Z,981.17
2017-08-13T14:24:55.580Z,981.13
2017-08-13T14:26:05.628Z,981.15
2017-08-13T14:27:15.603Z,981.28
2017-08-13T14:28:25.920Z,981.2
2017-08-13T14:29:36.206Z,981.19
2017-08-13T14:30:46.492Z,981.31
2017-08-13T14:31:56.781Z,981.29
2017-08-13T14:33:07.070Z,981.32
2017-08-13T14:34:17.363Z,981.36
2017-08-13T14:35:27.661Z,981.41
2017-08-13T14:36:37.651Z,981.42
2017-08-13T14:37:47.310Z,981.48
2017-08-13T14:38:57.609Z,981.43
2017-08-13T14:40:07.272Z,981.45